Time;durP1;ratioP1;P1;durP2;ratioP2;P2;SDS_P1;SDS_P2;PMS_P1;PMS_P2;Temp;Humidity;BMP_temperature;BMP_pressure;BME280_temperature;BME280_humidity;BME280_pressure;Samples;Min_cycle;Max_cycle;Signal;HPM_P1;HPM_P2
2021/11/23 00:01:50;;;;;;;18;11.6;;;;;;;5.02;90.35742;942.954;;;;
2021/11/23 00:04:22;;;;;;;18.1;11.8;;;;;;;5.01;90.25195;942.9291;;;;
2021/11/23 00:06:49;;;;;;;21.1;12.3;;;;;;;4.97;90.42676;942.9944;;;;
2021/11/23 00:09:14;;;;;;;18.8;11.2;;;;;;;5;90.55664;942.9774;;;;
2021/11/23 00:11:42;;;;;;;18.9;11.4;;;;;;;5.08;90.26758;943.0753;;;;
2021/11/23 00:14:07;;;;;;;18;11;;;;;;;5.13;90.04199;943.1127;;;;
2021/11/23 00:16:32;;;;;;;18.1;11.5;;;;;;;5.04;90.12305;943.0652;;;;
2021/11/23 00:18:59;;;;;;;18;11.2;;;;;;;5.01;90.27441;943.0648;;;;
2021/11/23 00:21:24;;;;;;;17.5;10.9;;;;;;;5.02;90.2334;943.0952;;;;
2021/11/23 00:23:51;;;;;;;15.8;10.1;;;;;;;4.9;90.28711;943.0754;;;;
2021/11/23 00:26:17;;;;;;;15.7;10.5;;;;;;;4.94;90.47363;943.0309;;;;
2021/11/23 00:28:41;;;;;;;17.5;11.4;;;;;;;5.08;90.01953;943.0786;;;;
2021/11/23 00:31:07;;;;;;;17.1;10.4;;;;;;;5.06;89.84668;943.0999;;;;
2021/11/23 00:33:40;;;;;;;17.1;10.6;;;;;;;5.09;89.66992;943.0969;;;;
2021/11/23 00:35:57;;;;;;;17.5;10.2;;;;;;;4.99;89.71875;943.0875;;;;
2021/11/23 00:38:22;;;;;;;16.2;9.9;;;;;;;5.02;89.74707;943.0446;;;;
2021/11/23 00:40:49;;;;;;;15.4;10;;;;;;;5.04;89.57031;942.9656;;;;
2021/11/23 00:46:49;;;;;;;16.2;10.1;;;;;;;4.88;90;942.9888;;;;
2021/11/23 00:49:13;;;;;;;16;10;;;;;;;4.9;90.0957;943.0107;;;;
2021/11/23 00:51:38;;;;;;;15.9;10.1;;;;;;;4.85;90.27637;943.0095;;;;
2021/11/23 00:54:03;;;;;;;15.7;9.9;;;;;;;4.77;90.71875;942.9956;;;;
2021/11/23 00:56:30;;;;;;;16.5;10.4;;;;;;;4.77;90.94434;943.0477;;;;
2021/11/23 00:58:55;;;;;;;15.4;10.5;;;;;;;4.8;90.97461;942.9741;;;;
2021/11/23 01:01:22;;;;;;;14.5;9.7;;;;;;;4.79;90.98145;943.0375;;;;
2021/11/23 01:03:47;;;;;;;14.2;9.4;;;;;;;4.8;90.88379;943.0327;;;;
2021/11/23 01:06:13;;;;;;;14.6;9.7;;;;;;;4.89;90.61035;943.0117;;;;
2021/11/23 01:08:39;;;;;;;16.2;10.2;;;;;;;4.95;90.4082;942.9626;;;;
2021/11/23 01:11:03;;;;;;;14.6;9.8;;;;;;;4.96;90.11719;943.117;;;;
2021/11/23 01:13:32;;;;;;;13.1;9.1;;;;;;;4.92;90.09766;943.0854;;;;
2021/11/23 01:16:02;;;;;;;16.5;10.2;;;;;;;4.98;89.87402;943.1558;;;;
2021/11/23 01:18:27;;;;;;;16.3;9.8;;;;;;;4.98;89.77344;943.1408;;;;
2021/11/23 01:20:52;;;;;;;14.1;9.1;;;;;;;5.09;89.45801;943.1814;;;;
2021/11/23 01:23:19;;;;;;;13.2;8.9;;;;;;;5.18;89.00293;943.1895;;;;
2021/11/23 01:25:44;;;;;;;12.1;8.6;;;;;;;5.17;89.0459;943.2042;;;;
2021/11/23 01:28:11;;;;;;;12.5;8.5;;;;;;;5.13;89.02734;943.1939;;;;
2021/11/23 01:30:37;;;;;;;14.1;9.1;;;;;;;5.15;88.93945;943.1607;;;;
2021/11/23 01:33:04;;;;;;;13.5;9;;;;;;;5.15;89.05371;943.1861;;;;
2021/11/23 01:35:29;;;;;;;13.6;8.7;;;;;;;5.13;88.94824;943.1696;;;;
2021/11/23 01:37:54;;;;;;;12.1;8.1;;;;;;;5.11;88.93164;943.1686;;;;
2021/11/23 01:40:22;;;;;;;13.5;8.9;;;;;;;5.11;88.89746;943.1355;;;;
2021/11/23 01:42:48;;;;;;;15.1;9.2;;;;;;;5.1;88.89746;943.1014;;;;
2021/11/23 01:45:18;;;;;;;12.5;8.7;;;;;;;5.13;88.94629;943.0936;;;;
2021/11/23 01:47:44;;;;;;;12.9;8.7;;;;;;;5.08;88.95996;943.0964;;;;
2021/11/23 01:50:10;;;;;;;14.6;8.9;;;;;;;5.01;89.36133;943.106;;;;
2021/11/23 01:52:35;;;;;;;14.5;9.5;;;;;;;5;89.51953;943.0989;;;;
2021/11/23 01:55:00;;;;;;;14.1;9;;;;;;;5.05;89.54004;943.0995;;;;
2021/11/23 01:57:27;;;;;;;13;9;;;;;;;5.04;89.52734;943.1071;;;;
2021/11/23 01:59:52;;;;;;;13.3;9.2;;;;;;;5.06;89.22656;943.1694;;;;
2021/11/23 02:02:20;;;;;;;13.1;8.3;;;;;;;4.99;89.40332;943.1238;;;;
2021/11/23 02:04:45;;;;;;;12.8;8.9;;;;;;;4.86;89.78027;943.1178;;;;
2021/11/23 02:07:13;;;;;;;13.3;8.9;;;;;;;5;89.75391;943.1981;;;;
2021/11/23 02:09:37;;;;;;;13.9;9.5;;;;;;;4.99;89.3916;943.1158;;;;
2021/11/23 02:12:02;;;;;;;14.1;9.4;;;;;;;4.84;89.90234;943.103;;;;
2021/11/23 02:14:30;;;;;;;12.9;9.3;;;;;;;4.91;89.75781;943.0844;;;;
2021/11/23 02:17:05;;;;;;;13;8.8;;;;;;;4.97;89.41211;943.0939;;;;
2021/11/23 02:19:33;;;;;;;14;9.2;;;;;;;4.94;89.82031;943.0853;;;;
2021/11/23 02:22:03;;;;;;;14.2;9.1;;;;;;;4.8;89.99414;943.135;;;;
2021/11/23 02:24:28;;;;;;;14.4;9.6;;;;;;;4.73;90.53125;943.1261;;;;
2021/11/23 02:26:57;;;;;;;16.2;9.7;;;;;;;4.78;90.67773;943.1691;;;;
2021/11/23 02:29:22;;;;;;;15.5;10.1;;;;;;;4.83;90.57422;943.1736;;;;
2021/11/23 02:31:47;;;;;;;14.1;9.6;;;;;;;4.88;90.39453;943.1415;;;;
2021/11/23 02:34:13;;;;;;;13.9;9.8;;;;;;;4.84;90.30566;943.2111;;;;
2021/11/23 02:36:38;;;;;;;15.1;10.2;;;;;;;4.91;90.12988;943.2274;;;;
2021/11/23 02:39:05;;;;;;;14.1;9.5;;;;;;;4.86;90.36816;943.2033;;;;
2021/11/23 02:41:30;;;;;;;14.5;10.1;;;;;;;4.92;90.1543;943.248;;;;
2021/11/23 02:43:56;;;;;;;15.5;9.7;;;;;;;4.97;89.94043;943.2578;;;;
2021/11/23 02:46:21;;;;;;;15.2;10.2;;;;;;;4.97;89.82715;943.291;;;;
2021/11/23 02:48:48;;;;;;;15.6;10.5;;;;;;;4.87;89.88574;943.21;;;;
2021/11/23 02:51:15;;;;;;;13.7;9.6;;;;;;;4.9;89.90234;943.2488;;;;
2021/11/23 02:53:38;;;;;;;15.4;10.1;;;;;;;4.93;89.76172;943.2358;;;;
2021/11/23 02:56:05;;;;;;;15;9.8;;;;;;;5;89.57422;943.2606;;;;
2021/11/23 02:58:31;;;;;;;14.1;10;;;;;;;4.98;89.51367;943.1942;;;;
2021/11/23 03:00:58;;;;;;;15.2;10.3;;;;;;;4.98;89.43457;943.2165;;;;
2021/11/23 03:03:23;;;;;;;14.2;9.8;;;;;;;5.05;89.01074;943.2841;;;;
2021/11/23 03:05:48;;;;;;;14.4;10;;;;;;;5;89.125;943.2394;;;;
2021/11/23 03:08:17;;;;;;;16.1;10.6;;;;;;;5.05;88.85254;943.3142;;;;
2021/11/23 03:10:42;;;;;;;16.3;10.2;;;;;;;5.04;88.99707;943.2894;;;;
2021/11/23 03:13:13;;;;;;;13.9;9.6;;;;;;;5.1;88.83984;943.3276;;;;
2021/11/23 03:15:42;;;;;;;14.4;10.2;;;;;;;5.1;88.62695;943.3169;;;;
2021/11/23 03:18:20;;;;;;;16.5;10.7;;;;;;;4.94;89.08887;943.2955;;;;
2021/11/23 03:20:51;;;;;;;13.9;9.8;;;;;;;4.91;89.20605;943.3359;;;;
2021/11/23 03:23:20;;;;;;;15.3;10.1;;;;;;;4.87;89.62793;943.3576;;;;
2021/11/23 03:25:45;;;;;;;21.8;11.3;;;;;;;4.94;89.37988;943.3688;;;;
2021/11/23 03:28:12;;;;;;;14.6;10.1;;;;;;;4.9;89.43066;943.4005;;;;
2021/11/23 03:30:37;;;;;;;16.7;10.5;;;;;;;4.94;89.47266;943.421;;;;
2021/11/23 03:33:05;;;;;;;16.7;11;;;;;;;4.84;89.62988;943.4389;;;;
2021/11/23 03:35:29;;;;;;;16.9;10.7;;;;;;;4.94;89.7207;943.4406;;;;
2021/11/23 03:37:55;;;;;;;15.9;10.5;;;;;;;4.98;89.38965;943.4888;;;;
2021/11/23 03:40:23;;;;;;;17;10.9;;;;;;;4.39;91.46191;943.4158;;;;
2021/11/23 03:42:48;;;;;;;16.1;10.8;;;;;;;4.66;91.25;943.4855;;;;
2021/11/23 03:45:18;;;;;;;17.5;11.3;;;;;;;4.82;90.6084;943.4084;;;;
2021/11/23 03:47:46;;;;;;;16.3;10.9;;;;;;;4.8;90.5127;943.5206;;;;
2021/11/23 03:50:11;;;;;;;16.9;10.8;;;;;;;4.67;90.91406;943.4526;;;;
2021/11/23 03:52:38;;;;;;;17.5;11.3;;;;;;;4.67;90.96777;943.4832;;;;
2021/11/23 03:55:04;;;;;;;18;11.7;;;;;;;4.85;90.43359;943.5056;;;;
2021/11/23 03:57:32;;;;;;;16.6;11.2;;;;;;;4.85;90.34375;943.4973;;;;
2021/11/23 04:00:01;;;;;;;16.9;11.5;;;;;;;4.95;90.02637;943.486;;;;
2021/11/23 04:02:31;;;;;;;17.7;11.5;;;;;;;5.05;89.55176;943.5122;;;;
2021/11/23 04:04:56;;;;;;;18;11.7;;;;;;;5.03;89.33398;943.4934;;;;
2021/11/23 04:07:23;;;;;;;16.1;11.2;;;;;;;5.1;89.10059;943.5134;;;;
2021/11/23 04:09:50;;;;;;;17.1;11.8;;;;;;;4.83;89.91016;943.486;;;;
2021/11/23 04:12:15;;;;;;;18.7;11.9;;;;;;;4.87;90.11035;943.4323;;;;
2021/11/23 04:14:43;;;;;;;18;12.4;;;;;;;4.82;90.56152;943.435;;;;
2021/11/23 04:17:09;;;;;;;18.4;12.6;;;;;;;4.86;90.23242;943.4519;;;;
2021/11/23 04:19:37;;;;;;;19.7;12.7;;;;;;;4.79;90.74512;943.4903;;;;
2021/11/23 04:22:02;;;;;;;18.8;12.8;;;;;;;4.81;90.77148;943.5041;;;;
2021/11/23 04:24:30;;;;;;;19.3;12.2;;;;;;;4.85;90.53516;943.5556;;;;
2021/11/23 04:26:56;;;;;;;20.4;12.4;;;;;;;4.94;90.29492;943.5109;;;;
2021/11/23 04:29:28;;;;;;;19.8;12.6;;;;;;;4.97;89.91602;943.5095;;;;
2021/11/23 04:31:53;;;;;;;19.8;12.2;;;;;;;4.82;90.59668;943.5078;;;;
2021/11/23 04:34:22;;;;;;;18.3;12.4;;;;;;;4.95;90.31738;943.4866;;;;
2021/11/23 04:36:47;;;;;;;19.3;12.5;;;;;;;5.09;89.85254;943.4734;;;;
2021/11/23 04:39:14;;;;;;;20.1;13;;;;;;;5.04;89.75098;943.5087;;;;
2021/11/23 04:41:39;;;;;;;18.2;12.3;;;;;;;5.11;89.57617;943.4965;;;;
2021/11/23 04:44:08;;;;;;;18.9;12.6;;;;;;;5.03;89.78418;943.4467;;;;
2021/11/23 04:46:33;;;;;;;20.2;13.1;;;;;;;4.95;90.15039;943.5128;;;;
2021/11/23 04:50:09;;;;;;;19.7;13.3;;;;;;;5.03;89.95313;943.5547;;;;
2021/11/23 04:52:39;;;;;;;20.8;13.7;;;;;;;4.91;89.99414;943.5901;;;;
2021/11/23 04:55:04;;;;;;;21.2;13.5;;;;;;;4.89;90.30664;943.5769;;;;
2021/11/23 04:57:34;;;;;;;21.5;14.3;;;;;;;4.95;90.16211;943.5675;;;;
2021/11/23 05:00:02;;;;;;;20.4;13.8;;;;;;;5.04;89.89941;943.5625;;;;
2021/11/23 05:02:28;;;;;;;20.1;13.4;;;;;;;5.03;90.14551;943.5779;;;;
2021/11/23 05:04:53;;;;;;;21.1;14;;;;;;;5.12;89.64355;943.6514;;;;
2021/11/23 05:07:18;;;;;;;23;14.3;;;;;;;5.18;89.23047;943.6128;;;;
2021/11/23 05:09:45;;;;;;;22.1;14.5;;;;;;;5.3;88.71387;943.6492;;;;
2021/11/23 05:12:10;;;;;;;20.8;13.9;;;;;;;5.27;88.59277;943.595;;;;
2021/11/23 05:14:39;;;;;;;21.9;13.6;;;;;;;5.24;88.58789;943.6942;;;;
2021/11/23 05:17:16;;;;;;;22.7;14.3;;;;;;;5.27;88.52539;943.7134;;;;
2021/11/23 05:19:41;;;;;;;24.1;14.1;;;;;;;5.25;88.71191;943.7324;;;;
2021/11/23 05:22:07;;;;;;;20.4;13.7;;;;;;;5.24;88.82422;943.7267;;;;
2021/11/23 05:24:37;;;;;;;23;14.9;;;;;;;5.3;88.47461;943.6909;;;;
2021/11/23 05:27:07;;;;;;;21.2;14.2;;;;;;;5.24;88.64355;943.6903;;;;
2021/11/23 05:29:31;;;;;;;22.8;14.4;;;;;;;5.25;88.63477;943.6984;;;;
2021/11/23 05:32:02;;;;;;;22.4;14.1;;;;;;;5.02;89.27344;943.6674;;;;
2021/11/23 05:34:30;;;;;;;22.8;14.6;;;;;;;5.17;88.97852;943.6382;;;;
2021/11/23 05:36:55;;;;;;;23;14.3;;;;;;;5.21;88.625;943.6561;;;;
2021/11/23 05:39:23;;;;;;;23.4;15.5;;;;;;;5.03;88.91602;943.5652;;;;
2021/11/23 05:41:49;;;;;;;22;15.1;;;;;;;4.92;89.4668;943.6495;;;;
2021/11/23 05:44:16;;;;;;;23.6;15.3;;;;;;;5.09;89.11914;943.6518;;;;
2021/11/23 05:46:41;;;;;;;22.6;15;;;;;;;5.07;88.97852;943.7511;;;;
2021/11/23 05:49:09;;;;;;;22.5;14.5;;;;;;;5.07;88.93555;943.7191;;;;
2021/11/23 05:51:34;;;;;;;22.7;14.5;;;;;;;5.11;88.77539;943.7633;;;;
2021/11/23 05:54:02;;;;;;;22;14.5;;;;;;;5.03;89.08594;943.7964;;;;
2021/11/23 05:56:27;;;;;;;22.1;13.9;;;;;;;4.81;90.03223;943.7544;;;;
2021/11/23 05:58:54;;;;;;;21.6;14.4;;;;;;;4.83;90.21582;943.8089;;;;
2021/11/23 06:01:19;;;;;;;23.7;15.3;;;;;;;4.86;89.97363;943.8638;;;;
2021/11/23 06:03:45;;;;;;;24.9;15.3;;;;;;;4.86;89.93848;943.9037;;;;
2021/11/23 06:06:13;;;;;;;23;14.9;;;;;;;4.85;90.07324;943.8985;;;;
2021/11/23 06:08:40;;;;;;;23.7;14.8;;;;;;;4.72;90.6416;943.8797;;;;
2021/11/23 06:11:05;;;;;;;24.7;15.4;;;;;;;4.8;90.76074;943.9381;;;;
2021/11/23 06:13:33;;;;;;;23.4;14.9;;;;;;;4.88;90.56348;943.9565;;;;
2021/11/23 06:16:05;;;;;;;23;14.8;;;;;;;4.84;90.51074;943.9055;;;;
2021/11/23 06:18:34;;;;;;;23.5;15;;;;;;;4.94;90.19141;943.9913;;;;
2021/11/23 06:21:04;;;;;;;23.2;14.6;;;;;;;4.75;90.54785;943.9164;;;;
2021/11/23 06:23:28;;;;;;;23.8;14.9;;;;;;;4.86;90.55762;944.0308;;;;
2021/11/23 06:26:00;;;;;;;24.3;15.2;;;;;;;4.9;90.42285;944.0245;;;;
2021/11/23 06:28:28;;;;;;;23.4;15.5;;;;;;;4.93;90.44922;944.0839;;;;
2021/11/23 06:30:53;;;;;;;23.5;14.7;;;;;;;4.86;90.61621;944.1556;;;;
2021/11/23 06:33:22;;;;;;;21.3;14.3;;;;;;;4.79;90.41895;944.2161;;;;
2021/11/23 06:35:52;;;;;;;22.3;14.5;;;;;;;4.74;90.8252;944.2916;;;;
2021/11/23 06:38:17;;;;;;;21.9;14.1;;;;;;;4.81;90.53516;944.3292;;;;
2021/11/23 06:40:45;;;;;;;22;14.4;;;;;;;4.79;90.21777;944.3772;;;;
2021/11/23 06:43:09;;;;;;;23.5;14.9;;;;;;;4.7;90.19824;944.3596;;;;
2021/11/23 06:45:36;;;;;;;24.7;15.3;;;;;;;4.69;90.1875;944.3228;;;;
2021/11/23 06:48:02;;;;;;;23;14.3;;;;;;;4.81;89.93945;944.3933;;;;
2021/11/23 06:50:32;;;;;;;24.3;14.4;;;;;;;4.75;90.06348;944.3519;;;;
2021/11/23 06:52:53;;;;;;;22.3;14.5;;;;;;;4.92;89.6582;944.3708;;;;
2021/11/23 06:55:24;;;;;;;23.8;14.5;;;;;;;4.98;89.1084;944.4239;;;;
2021/11/23 06:57:55;;;;;;;23.3;14.7;;;;;;;4.93;88.80371;944.3917;;;;
2021/11/23 07:00:29;;;;;;;23.7;15;;;;;;;4.78;89.43848;944.3683;;;;
2021/11/23 07:02:56;;;;;;;21.4;14.4;;;;;;;4.94;88.9541;944.3466;;;;
2021/11/23 07:05:22;;;;;;;22.3;13.7;;;;;;;4.68;89.6875;944.4445;;;;
2021/11/23 07:07:50;;;;;;;22.2;14.8;;;;;;;4.87;89.35547;944.4217;;;;
2021/11/23 07:10:15;;;;;;;22.2;14.5;;;;;;;4.88;89.25586;944.4324;;;;
2021/11/23 07:12:43;;;;;;;22.2;14.2;;;;;;;5.01;88.93359;944.4633;;;;
2021/11/23 07:15:08;;;;;;;23.1;15.2;;;;;;;5.11;88.44629;944.4333;;;;
2021/11/23 07:17:41;;;;;;;21.4;13.4;;;;;;;4.86;88.76758;944.4783;;;;
2021/11/23 07:20:12;;;;;;;21.6;13.9;;;;;;;4.91;89.49902;944.4716;;;;
2021/11/23 07:22:39;;;;;;;23.1;14.5;;;;;;;4.99;89.23438;944.4045;;;;
2021/11/23 07:25:05;;;;;;;22.7;14.8;;;;;;;4.89;89.10254;944.4252;;;;
2021/11/23 07:27:35;;;;;;;20.9;14.2;;;;;;;4.95;88.85449;944.4565;;;;
2021/11/23 07:30:09;;;;;;;23.2;14.5;;;;;;;5.11;88.2666;944.5154;;;;
2021/11/23 07:32:40;;;;;;;21.1;13.4;;;;;;;5.04;87.83398;944.522;;;;
2021/11/23 07:35:10;;;;;;;21.3;13.8;;;;;;;5.16;88.05176;944.5688;;;;
2021/11/23 07:37:40;;;;;;;19.7;12.8;;;;;;;5.17;87.45605;944.592;;;;
2021/11/23 07:40:03;;;;;;;19;12.7;;;;;;;5.05;88.08594;944.5912;;;;
2021/11/23 07:42:30;;;;;;;20.1;12.6;;;;;;;5.15;88.14941;944.6763;;;;
2021/11/23 07:44:55;;;;;;;19.8;12.9;;;;;;;5.27;87.82813;944.6816;;;;
2021/11/23 07:47:24;;;;;;;19.3;12.3;;;;;;;5.35;87.17871;944.7464;;;;
2021/11/23 07:49:47;;;;;;;21;13.3;;;;;;;5.41;86.96289;944.6934;;;;
2021/11/23 07:52:16;;;;;;;23.6;13.8;;;;;;;5.36;86.68262;944.738;;;;
2021/11/23 07:54:40;;;;;;;21.2;13.6;;;;;;;5.39;86.32715;944.7381;;;;
2021/11/23 07:57:08;;;;;;;19.9;12.8;;;;;;;5.47;85.8584;944.7924;;;;
2021/11/23 07:59:33;;;;;;;19.8;13;;;;;;;5.52;85.67578;944.7489;;;;
2021/11/23 08:02:01;;;;;;;17.7;12.7;;;;;;;5.6;85.43262;944.7489;;;;
2021/11/23 08:04:26;;;;;;;19.9;12.9;;;;;;;5.53;85.25977;944.822;;;;
2021/11/23 08:06:54;;;;;;;20.1;12.8;;;;;;;5.6;85.09375;944.7593;;;;
2021/11/23 08:09:20;;;;;;;19.1;12.4;;;;;;;5.49;85.23047;944.8055;;;;
2021/11/23 08:11:49;;;;;;;19.9;13.3;;;;;;;5.22;85.95605;944.7996;;;;
2021/11/23 08:14:19;;;;;;;19.3;12.7;;;;;;;5.3;85.93848;944.7807;;;;
2021/11/23 08:16:51;;;;;;;18.7;13;;;;;;;5.18;86.5918;944.8301;;;;
2021/11/23 08:19:15;;;;;;;20.3;12.5;;;;;;;5.29;86.10449;944.8859;;;;
2021/11/23 08:21:41;;;;;;;18.4;12.6;;;;;;;5.36;85.75781;944.8231;;;;
2021/11/23 08:24:07;;;;;;;19.6;12.9;;;;;;;5.46;85.57422;944.8865;;;;
2021/11/23 08:26:33;;;;;;;19.4;12.6;;;;;;;5.14;86.75;944.8536;;;;
2021/11/23 08:29:02;;;;;;;18.9;12.8;;;;;;;5.23;86.70215;944.8663;;;;
2021/11/23 08:31:33;;;;;;;20.1;13.4;;;;;;;5.35;86.5459;944.8511;;;;
2021/11/23 08:33:59;;;;;;;20.2;13;;;;;;;5.39;86.5752;944.8606;;;;
2021/11/23 08:36:25;;;;;;;18.9;12.7;;;;;;;5.52;86.33203;944.9254;;;;
2021/11/23 08:38:52;;;;;;;20.2;12.8;;;;;;;5.6;85.54492;944.9442;;;;
2021/11/23 08:41:17;;;;;;;19;12.4;;;;;;;5.15;87.36426;944.9331;;;;
2021/11/23 08:43:45;;;;;;;20.4;13.3;;;;;;;5.51;86.29688;944.9462;;;;
2021/11/23 08:46:11;;;;;;;18.1;12.6;;;;;;;5.58;85.36328;944.9925;;;;
2021/11/23 08:48:41;;;;;;;19.4;12.6;;;;;;;5.58;85.85938;945.0469;;;;
2021/11/23 08:51:09;;;;;;;17.9;12.4;;;;;;;5.64;84.94434;945.0778;;;;
2021/11/23 08:53:31;;;;;;;18.8;12.2;;;;;;;5.52;84.7168;945.0848;;;;
2021/11/23 08:55:56;;;;;;;18.8;12.3;;;;;;;5.46;84.88672;945.0595;;;;
2021/11/23 08:58:22;;;;;;;17.7;12.3;;;;;;;5.46;84.77344;945.1243;;;;
2021/11/23 09:00:48;;;;;;;17.1;11.7;;;;;;;5.45;85.3584;945.0701;;;;
2021/11/23 09:03:17;;;;;;;18.5;12.1;;;;;;;5.46;85.02148;945.1259;;;;
2021/11/23 09:05:44;;;;;;;18.2;11.9;;;;;;;5.7;84.46973;945.1908;;;;
2021/11/23 09:08:07;;;;;;;18.5;12;;;;;;;5.67;83.66309;945.1551;;;;
2021/11/23 09:10:34;;;;;;;17.2;11.8;;;;;;;5.73;83.50586;945.1486;;;;
2021/11/23 09:12:57;;;;;;;17.7;11.7;;;;;;;5.75;83.47559;945.1302;;;;
2021/11/23 09:15:27;;;;;;;18.8;11.5;;;;;;;5.97;83.05664;945.2096;;;;
2021/11/23 09:17:59;;;;;;;16;11.3;;;;;;;6.14;81.82227;945.1688;;;;
2021/11/23 09:20:23;;;;;;;17.2;11.7;;;;;;;6.04;81.1709;945.1469;;;;
2021/11/23 09:22:52;;;;;;;17.7;11.3;;;;;;;6.25;81.26855;945.1526;;;;
2021/11/23 09:25:18;;;;;;;16;10.6;;;;;;;6.35;80.95898;945.1721;;;;
2021/11/23 09:27:59;;;;;;;14.4;10;;;;;;;6.48;78.87988;945.139;;;;
2021/11/23 09:30:23;;;;;;;16;10.7;;;;;;;6.62;78.42969;945.1799;;;;
2021/11/23 09:32:51;;;;;;;13.6;9.8;;;;;;;6.74;77.97656;945.1786;;;;
2021/11/23 09:35:22;;;;;;;15.8;11.4;;;;;;;6.91;78.16699;945.1942;;;;
2021/11/23 09:37:47;;;;;;;16.7;11.3;;;;;;;6.99;77.32129;945.166;;;;
2021/11/23 09:40:18;;;;;;;15;10.6;;;;;;;6.92;77.35156;945.1858;;;;
2021/11/23 09:42:42;;;;;;;15;10.5;;;;;;;7.04;75.54004;945.0891;;;;
2021/11/23 09:45:13;;;;;;;15.4;10.1;;;;;;;7.01;77.42578;945.1844;;;;
2021/11/23 09:47:42;;;;;;;14.9;10.2;;;;;;;7.12;76.26758;945.1082;;;;
2021/11/23 09:50:06;;;;;;;12.9;9.8;;;;;;;7.19;76.66602;945.1281;;;;
2021/11/23 09:52:31;;;;;;;15.4;10.3;;;;;;;7.04;76.63867;945.1221;;;;
2021/11/23 09:54:59;;;;;;;14.8;10.5;;;;;;;7.11;75.97168;945.115;;;;
2021/11/23 09:57:26;;;;;;;13.8;10;;;;;;;7.27;74.83301;945.1111;;;;
2021/11/23 09:59:51;;;;;;;13.9;9.9;;;;;;;7.5;74.82715;945.1614;;;;
2021/11/23 10:02:19;;;;;;;13.7;9.7;;;;;;;7.41;74.03906;945.1384;;;;
2021/11/23 10:04:44;;;;;;;13.3;9.4;;;;;;;7.45;74.83105;945.0759;;;;
2021/11/23 10:07:11;;;;;;;14;9.9;;;;;;;7.49;74.97266;945.0876;;;;
2021/11/23 10:09:37;;;;;;;13.3;9.7;;;;;;;7.4;75.24023;945.117;;;;
2021/11/23 10:12:02;;;;;;;14.7;10;;;;;;;7.42;74.59961;945.1552;;;;
2021/11/23 10:14:34;;;;;;;14;9.8;;;;;;;7.52;74.80957;945.095;;;;
2021/11/23 10:16:57;;;;;;;13.8;9.5;;;;;;;7.56;74.98535;945.0825;;;;
2021/11/23 10:19:25;;;;;;;13.3;8.9;;;;;;;7.27;75.42285;945.1216;;;;
2021/11/23 10:21:59;;;;;;;13.6;9;;;;;;;7.54;76.19434;945.1082;;;;
2021/11/23 10:24:29;;;;;;;12.7;9.2;;;;;;;7.72;73.99316;945.1189;;;;
2021/11/23 10:26:56;;;;;;;12.4;9.1;;;;;;;7.76;73.63574;945.1099;;;;
2021/11/23 10:29:19;;;;;;;12.2;8.9;;;;;;;7.49;73.99805;945.0186;;;;
2021/11/23 10:31:52;;;;;;;15.2;9.8;;;;;;;7.6;73.98438;945.0934;;;;
2021/11/23 10:34:16;;;;;;;12.1;8.8;;;;;;;7.51;74.46387;945.1174;;;;
2021/11/23 10:36:47;;;;;;;12.3;9;;;;;;;7.39;76.12109;945.0079;;;;
2021/11/23 10:39:17;;;;;;;14;9.7;;;;;;;7.3;77.2627;944.9561;;;;
2021/11/23 10:41:46;;;;;;;12.8;9.3;;;;;;;7.44;77.24316;944.9957;;;;
2021/11/23 10:44:11;;;;;;;12.9;9.3;;;;;;;7.4;75.75098;944.983;;;;
2021/11/23 10:46:36;;;;;;;14.6;10.4;;;;;;;7.58;75.66895;944.9858;;;;
2021/11/23 10:49:01;;;;;;;12.8;9.4;;;;;;;7.62;75.36914;944.8716;;;;
2021/11/23 10:51:29;;;;;;;13.3;9.1;;;;;;;7.56;75.51855;944.9489;;;;
2021/11/23 10:53:56;;;;;;;15.6;10.8;;;;;;;7.53;75.36523;944.9382;;;;
2021/11/23 10:56:20;;;;;;;12.6;9.3;;;;;;;7.18;76.73047;944.9755;;;;
2021/11/23 10:58:46;;;;;;;14.1;9.7;;;;;;;6.92;77.47656;944.9713;;;;
2021/11/23 11:01:15;;;;;;;14.8;10;;;;;;;6.68;77.62598;944.9534;;;;
2021/11/23 11:03:40;;;;;;;13.4;9.4;;;;;;;6.48;78.6416;944.95;;;;
2021/11/23 11:06:09;;;;;;;13.3;9;;;;;;;6.47;79.19434;944.9141;;;;
2021/11/23 11:08:35;;;;;;;12.6;8.8;;;;;;;6.41;79.84961;944.9839;;;;
2021/11/23 11:11:03;;;;;;;12.8;8.9;;;;;;;6.6;79.08203;944.8378;;;;
2021/11/23 11:13:28;;;;;;;11.4;8.1;;;;;;;6.64;78.53613;944.8651;;;;
2021/11/23 11:16:05;;;;;;;12;8.2;;;;;;;6.75;78.75977;944.8283;;;;
2021/11/23 11:18:30;;;;;;;13.4;8.6;;;;;;;6.95;76.80371;944.8552;;;;
2021/11/23 11:20:55;;;;;;;11;8.3;;;;;;;6.96;77.41602;944.8824;;;;
2021/11/23 11:23:20;;;;;;;10.2;7.7;;;;;;;7.09;75.88867;944.8452;;;;
2021/11/23 11:25:48;;;;;;;11.3;8.1;;;;;;;6.92;76.50195;944.8225;;;;
2021/11/23 11:28:13;;;;;;;11;7.9;;;;;;;7.16;75.6748;944.8159;;;;
2021/11/23 11:30:42;;;;;;;10.9;8.3;;;;;;;6.98;76.02832;944.8215;;;;
2021/11/23 11:33:08;;;;;;;11.2;7.8;;;;;;;6.87;76.5166;944.7845;;;;
2021/11/23 11:35:34;;;;;;;12.3;8.7;;;;;;;6.82;76.99414;944.7969;;;;
2021/11/23 11:38:01;;;;;;;10.5;7.9;;;;;;;6.73;78.04297;944.8245;;;;
2021/11/23 11:40:27;;;;;;;11.6;8.4;;;;;;;6.66;79.30859;944.8267;;;;
2021/11/23 11:42:52;;;;;;;10.9;8;;;;;;;6.47;80.24609;944.8215;;;;
2021/11/23 11:45:22;;;;;;;12.6;8.7;;;;;;;6.55;80.03516;944.8345;;;;
2021/11/23 11:47:53;;;;;;;12.4;8.3;;;;;;;6.6;78.90234;944.7051;;;;
2021/11/23 11:50:17;;;;;;;11.1;8.1;;;;;;;6.8;77.77344;944.7153;;;;
2021/11/23 11:52:44;;;;;;;9.8;7.4;;;;;;;6.81;77.61523;944.668;;;;
2021/11/23 11:55:15;;;;;;;13.5;8;;;;;;;6.94;76.33789;944.7352;;;;
2021/11/23 11:57:40;;;;;;;20.4;11.2;;;;;;;7.16;77.13477;944.6509;;;;
2021/11/23 12:00:05;;;;;;;19.5;10;;;;;;;7.23;75.86719;944.6575;;;;
2021/11/23 12:02:30;;;;;;;10.8;7.8;;;;;;;7.27;74.70703;944.688;;;;
2021/11/23 12:04:58;;;;;;;11.3;8;;;;;;;7.37;74.21582;944.6945;;;;
2021/11/23 12:07:23;;;;;;;10.1;7.9;;;;;;;7.33;74.26465;944.6822;;;;
2021/11/23 12:09:52;;;;;;;13.7;8.2;;;;;;;7.27;74.02832;944.6359;;;;
2021/11/23 12:12:18;;;;;;;11.4;8.1;;;;;;;7.22;73.87207;944.6705;;;;
2021/11/23 12:14:51;;;;;;;11.4;7.9;;;;;;;7.28;73.97168;944.6534;;;;
2021/11/23 12:17:29;;;;;;;10.5;7.8;;;;;;;7.3;73.79492;944.7217;;;;
2021/11/23 12:19:58;;;;;;;11.2;7.8;;;;;;;7.3;74.27148;944.6947;;;;
2021/11/23 12:22:30;;;;;;;9.2;7.1;;;;;;;7.42;73.19336;944.7542;;;;
2021/11/23 12:24:58;;;;;;;10.7;7.4;;;;;;;7.03;74.76758;944.6895;;;;
2021/11/23 12:27:26;;;;;;;10.9;7.6;;;;;;;7.06;75.47656;944.7413;;;;
2021/11/23 12:29:55;;;;;;;10;7.5;;;;;;;7.22;74.4834;944.6605;;;;
2021/11/23 12:32:19;;;;;;;9.3;7.2;;;;;;;7.12;74.96484;944.6433;;;;
2021/11/23 12:34:49;;;;;;;11;7.3;;;;;;;7;74.75;944.6089;;;;
2021/11/23 12:37:18;;;;;;;9.9;7.1;;;;;;;6.99;75.35059;944.6072;;;;
2021/11/23 12:39:43;;;;;;;10.6;7.5;;;;;;;7.17;75.48438;944.5628;;;;
2021/11/23 12:42:10;;;;;;;8.3;6.5;;;;;;;7.3;74.19238;944.6566;;;;
2021/11/23 12:44:37;;;;;;;9.3;6.8;;;;;;;7.34;73.46191;944.6142;;;;
2021/11/23 12:47:03;;;;;;;10.5;7.4;;;;;;;7.27;73.9375;944.5931;;;;
2021/11/23 12:49:32;;;;;;;8.9;6.1;;;;;;;7.41;73.49512;944.6188;;;;
2021/11/23 12:51:54;;;;;;;8;6.2;;;;;;;7.4;72.69043;944.6494;;;;
2021/11/23 12:54:23;;;;;;;8.6;6.3;;;;;;;7.39;72.60742;944.6055;;;;
2021/11/23 12:56:49;;;;;;;9.2;6.8;;;;;;;7.4;72.54297;944.6526;;;;
2021/11/23 12:59:14;;;;;;;7.8;6.3;;;;;;;7.39;72.22363;944.6602;;;;
2021/11/23 13:01:39;;;;;;;8.1;6.6;;;;;;;7.36;72.68262;944.6323;;;;
2021/11/23 13:04:06;;;;;;;9.8;6.8;;;;;;;7.13;73.34668;944.5685;;;;
2021/11/23 13:06:31;;;;;;;10;7.4;;;;;;;7.12;74.00195;944.5643;;;;
2021/11/23 13:08:58;;;;;;;8.6;6.5;;;;;;;7.02;73.95117;944.5609;;;;
2021/11/23 13:11:23;;;;;;;9.7;7;;;;;;;6.93;74.62793;944.5142;;;;
2021/11/23 13:13:48;;;;;;;9.7;7.2;;;;;;;6.72;76.60449;944.5567;;;;
2021/11/23 13:16:17;;;;;;;9.7;6.5;;;;;;;6.62;77.2207;944.5511;;;;
2021/11/23 13:18:45;;;;;;;9;6.5;;;;;;;6.68;76.53027;944.5516;;;;
2021/11/23 13:21:14;;;;;;;9.9;7.3;;;;;;;6.77;76.60156;944.5148;;;;
2021/11/23 13:23:39;;;;;;;10.5;7.1;;;;;;;6.63;77.57227;944.5513;;;;
2021/11/23 13:26:09;;;;;;;10.5;7.1;;;;;;;6.54;78.25586;944.5066;;;;
2021/11/23 13:28:40;;;;;;;9.9;7.5;;;;;;;6.63;77.90039;944.4381;;;;
2021/11/23 13:31:08;;;;;;;11.2;7.5;;;;;;;6.65;77.6084;944.4561;;;;
2021/11/23 13:33:38;;;;;;;11.7;7.9;;;;;;;6.54;78.12207;944.4839;;;;
2021/11/23 13:36:02;;;;;;;10.6;7.3;;;;;;;6.63;77.40332;944.4634;;;;
2021/11/23 13:38:30;;;;;;;11.5;7.8;;;;;;;6.74;77.09473;944.4126;;;;
2021/11/23 13:40:56;;;;;;;10.6;7.6;;;;;;;6.95;76.46191;944.4379;;;;
2021/11/23 13:43:21;;;;;;;9.9;7;;;;;;;7.03;75.68555;944.4196;;;;
2021/11/23 13:45:48;;;;;;;10.4;7.6;;;;;;;7.18;75.42773;944.3602;;;;
2021/11/23 13:48:13;;;;;;;10.6;7.4;;;;;;;7.35;74.61914;944.4805;;;;
2021/11/23 13:50:42;;;;;;;11.5;7.4;;;;;;;7.6;74.24512;944.48;;;;
2021/11/23 13:53:07;;;;;;;10.3;7.4;;;;;;;8.28;71.72656;944.4416;;;;
2021/11/23 13:55:34;;;;;;;9.7;6.7;;;;;;;9.29;67.47656;944.4742;;;;
2021/11/23 13:57:59;;;;;;;9.9;7.4;;;;;;;9.44;65.48535;944.5201;;;;
2021/11/23 14:00:25;;;;;;;10.9;7.1;;;;;;;9;67.36328;944.5189;;;;
2021/11/23 14:02:50;;;;;;;10.5;7;;;;;;;8.64;68.5459;944.4609;;;;
2021/11/23 14:05:16;;;;;;;10.6;7.9;;;;;;;8.19;70.47363;944.4721;;;;
2021/11/23 14:07:41;;;;;;;12.4;8.6;;;;;;;7.75;72.6709;944.5189;;;;
2021/11/23 14:10:11;;;;;;;11.8;7.7;;;;;;;7.81;73.04297;944.524;;;;
2021/11/23 14:12:36;;;;;;;10.9;7.7;;;;;;;7.55;74.21289;944.5007;;;;
2021/11/23 14:15:02;;;;;;;12.3;8.7;;;;;;;7.1;76.625;944.493;;;;
2021/11/23 14:17:36;;;;;;;12.6;9;;;;;;;7.05;77.43262;944.5129;;;;
2021/11/23 14:20:02;;;;;;;13.6;8.4;;;;;;;6.97;76.95508;944.5599;;;;
2021/11/23 14:22:27;;;;;;;12.8;8.9;;;;;;;6.84;77.37207;944.5918;;;;
2021/11/23 14:24:52;;;;;;;11.8;8.6;;;;;;;6.94;77.25488;944.5659;;;;